桶川 LCL     1035-1125(0+50)   BE33
桶川 LCL     1225-1240(0+15)   BE33

天候不順で延期となっていた遊覧飛行をしてきました。
相変わらず大気は不安定なようで晴れ間があっても
飛行前点検中に小雨があったり、飛行中も場所によって
はウインドシールドに細かい雨滴がついたり雲も1,000ft
くらいにあるような天気でした。

飛行場からの帰路でも強めのにわか雨に遭遇。早めに
フライトを終えて正解でした。

20180826P1015503JA3446SM
二度目の飛行のエンジン始動を簡単にするため冷却中

METAR RJTJ 260400Z 01008KT 9999 FEW030 BKN160
30/18 Q1007 RMK 1CU030 6AC160 A2976=
METAR RJTY 260356Z 04009KT 10SM CLR 30/19 A2981
RMK A02SLP089 T02970188 FZRANO $=
METAR RJTC 260429Z 03006KT 360V060 9999 FEW020
SCT040 BKN160 30/17 Q1008 RMK 1CU020 3SC040
5AC160 A2977=
METAR RJTF 2600400Z 36008KT 9999 -SHRA SCT025
BKN050 BKN100 31/21 Q1007 RMK3CU025 5SC050
6AC100 A2975=
METAR RJTT 260430Z 07014KT 9999 -SHRA FEW020
BKN030 BKN060 30/27 Q1006 NOSIG RMK 1CU020
5CU030 7AC060 A297=